Time;durP1;ratioP1;P1;durP2;ratioP2;P2;SDS_P1;SDS_P2;PMS_P1;PMS_P2;Temp;Humidity;BMP_temperature;BMP_pressure;BME280_temperature;BME280_humidity;BME280_pressure;Samples;Min_cycle;Max_cycle;Signal;HPM_P1;HPM_P2
2021/07/25 00:00:17;;;;;;;47.80;39.30;;;18.80;86.20;;;;;;5032804;28;20053;-73
2021/07/25 00:02:43;;;;;;;45.17;38.13;;;18.70;86.20;;;;;;5031606;28;20499;-73
2021/07/25 00:05:09;;;;;;;45.63;38.28;;;18.70;86.40;;;;;;5035484;28;20042;-73
2021/07/25 00:07:35;;;;;;;45.75;37.97;;;18.70;86.30;;;;;;5029862;28;20554;-77
2021/07/25 00:10:03;;;;;;;46.70;38.40;;;18.70;86.40;;;;;;5029265;28;20087;-73
2021/07/25 00:12:29;;;;;;;45.42;38.08;;;18.70;86.60;;;;;;5031486;28;20030;-78
2021/07/25 00:14:55;;;;;;;50.97;42.13;;;18.60;86.50;;;;;;5030064;28;20042;-78
2021/07/25 00:17:21;;;;;;;47.22;40.67;;;18.60;86.40;;;;;;5023017;28;20091;-74
2021/07/25 00:19:47;;;;;;;45.97;39.20;;;18.60;86.40;;;;;;5028437;28;20112;-73
2021/07/25 00:22:14;;;;;;;45.97;39.92;;;18.60;86.50;;;;;;5032847;28;20049;-72
2021/07/25 00:24:48;;;;;;;42.22;37.33;;;18.60;86.60;;;;;;5032356;28;20045;-73
2021/07/25 00:27:13;;;;;;;49.20;40.78;;;18.60;86.60;;;;;;5027671;28;20072;-72
2021/07/25 00:29:39;;;;;;;46.53;40.08;;;18.60;86.50;;;;;;5029656;28;20457;-79
2021/07/25 00:32:08;;;;;;;46.40;38.88;;;18.60;86.40;;;;;;5027936;28;20060;-73
2021/07/25 00:34:34;;;;;;;47.20;40.45;;;18.50;86.30;;;;;;5037254;28;20041;-73
2021/07/25 00:37:01;;;;;;;49.25;41.42;;;18.50;86.40;;;;;;5034579;28;20064;-73
2021/07/25 00:39:27;;;;;;;59.72;45.03;;;18.40;86.40;;;;;;5029353;28;20032;-79
2021/07/25 00:41:53;;;;;;;54.85;46.22;;;18.30;86.50;;;;;;5034981;28;20045;-73
2021/07/25 00:44:20;;;;;;;52.50;45.30;;;18.10;87.10;;;;;;5030212;28;20045;-73
2021/07/25 00:46:56;;;;;;;54.17;45.85;;;18.10;87.30;;;;;;5026655;28;20045;-74
2021/07/25 00:49:22;;;;;;;62.28;48.45;;;18.10;87.70;;;;;;5027130;28;20033;-78
2021/07/25 00:51:47;;;;;;;61.22;48.95;;;17.90;88.90;;;;;;5034198;28;20159;-72
2021/07/25 00:54:14;;;;;;;65.03;53.00;;;17.80;89.30;;;;;;5030264;28;20034;-78
2021/07/25 00:56:40;;;;;;;56.70;48.15;;;17.80;89.40;;;;;;5028109;28;20037;-74
2021/07/25 00:59:06;;;;;;;61.03;47.33;;;17.80;89.40;;;;;;5033660;28;20128;-73
2021/07/25 01:01:31;;;;;;;57.67;46.40;;;17.80;89.20;;;;;;5035325;28;20650;-72
2021/07/25 01:04:21;;;;;;;56.72;45.50;;;17.80;89.30;;;;;;5028004;28;20387;-75
2021/07/25 01:06:50;;;;;;;51.75;44.38;;;17.80;89.30;;;;;;5027368;28;20628;-72
2021/07/25 01:09:26;;;;;;;53.67;44.78;;;17.90;89.30;;;;;;5032697;28;20527;-73
2021/07/25 01:12:03;;;;;;;48.78;40.55;;;17.90;89.20;;;;;;5029678;28;20096;-72
2021/07/25 01:14:32;;;;;;;52.05;41.33;;;17.90;89.20;;;;;;5026189;28;20155;-74
2021/07/25 01:17:30;;;;;;;51.25;40.65;;;18.00;89.30;;;;;;5022806;28;20029;-74
2021/07/25 01:20:03;;;;;;;46.85;38.97;;;18.00;89.10;;;;;;5017752;28;20046;-74
2021/07/25 01:22:31;;;;;;;49.45;40.42;;;18.00;89.10;;;;;;5025760;28;20080;-72
2021/07/25 01:24:57;;;;;;;47.95;39.20;;;18.10;89.00;;;;;;5026642;28;20172;-73
2021/07/25 01:27:40;;;;;;;43.22;36.17;;;18.10;88.90;;;;;;5025514;28;20073;-73
2021/07/25 01:30:09;;;;;;;46.55;37.42;;;18.10;88.90;;;;;;5029411;28;20033;-74
2021/07/25 01:32:37;;;;;;;45.75;36.42;;;18.10;88.60;;;;;;5024936;28;20389;-73
2021/07/25 01:35:04;;;;;;;43.35;34.25;;;18.10;88.30;;;;;;5028647;28;20041;-73
2021/07/25 01:37:31;;;;;;;39.40;33.33;;;18.10;88.40;;;;;;5026866;28;20037;-75
2021/07/25 01:39:56;;;;;;;43.78;35.20;;;18.10;88.40;;;;;;5029679;28;20025;-72
2021/07/25 01:42:32;;;;;;;39.30;32.88;;;18.10;88.40;;;;;;5030288;28;20044;-73
2021/07/25 01:44:59;;;;;;;39.20;32.72;;;18.10;88.40;;;;;;5023527;28;20080;-73
2021/07/25 01:47:25;;;;;;;40.63;33.05;;;18.10;88.40;;;;;;5029756;28;20055;-73
2021/07/25 01:49:51;;;;;;;42.58;33.15;;;18.10;88.40;;;;;;5029783;28;20512;-74
2021/07/25 01:52:17;;;;;;;36.22;31.40;;;18.10;88.20;;;;;;5026354;28;20025;-74
2021/07/25 01:54:43;;;;;;;40.10;32.22;;;18.10;88.00;;;;;;5029569;28;20120;-73
2021/07/25 01:57:09;;;;;;;41.50;34.65;;;18.00;88.10;;;;;;5022760;28;20156;-73
2021/07/25 01:59:35;;;;;;;37.45;31.02;;;18.00;88.00;;;;;;5026028;28;20475;-72
2021/07/25 02:02:01;;;;;;;34.08;28.60;;;18.00;88.30;;;;;;5024065;28;20038;-74
2021/07/25 02:04:27;;;;;;;36.97;30.65;;;18.00;88.40;;;;;;5029469;28;20125;-73
2021/07/25 02:06:52;;;;;;;37.92;31.52;;;18.00;88.50;;;;;;5031862;28;20289;-73
2021/07/25 02:09:18;;;;;;;34.15;30.17;;;18.00;88.50;;;;;;5027818;28;20432;-79
2021/07/25 02:11:44;;;;;;;37.33;29.77;;;18.00;88.40;;;;;;5029418;28;20369;-73
2021/07/25 02:14:09;;;;;;;37.00;30.65;;;18.00;88.30;;;;;;5027980;28;20571;-74
2021/07/25 02:16:36;;;;;;;34.42;27.15;;;18.00;88.20;;;;;;5033224;28;20040;-73
2021/07/25 02:19:02;;;;;;;33.40;25.50;;;18.00;88.30;;;;;;5025286;28;20033;-75
2021/07/25 02:21:28;;;;;;;31.15;26.48;;;18.00;88.30;;;;;;5030517;28;20044;-75
2021/07/25 02:23:53;;;;;;;32.88;26.92;;;18.00;88.20;;;;;;5025304;28;20037;-79
2021/07/25 02:26:22;;;;;;;30.88;24.58;;;18.00;88.10;;;;;;5027939;28;20032;-74
2021/07/25 02:28:48;;;;;;;31.77;26.13;;;18.00;88.10;;;;;;5031273;28;20048;-77
2021/07/25 02:31:14;;;;;;;28.50;24.50;;;18.00;88.10;;;;;;5028335;28;20042;-73
2021/07/25 02:33:39;;;;;;;30.88;25.00;;;17.90;88.00;;;;;;5023865;28;20550;-75
2021/07/25 02:36:05;;;;;;;31.27;24.13;;;17.90;87.90;;;;;;5028642;28;20029;-78
2021/07/25 02:38:30;;;;;;;30.85;24.73;;;17.90;87.90;;;;;;5027249;28;20038;-76
2021/07/25 02:40:56;;;;;;;29.90;24.77;;;17.80;87.90;;;;;;5029205;28;20034;-74
2021/07/25 02:43:22;;;;;;;27.52;23.38;;;17.90;87.90;;;;;;5032011;28;20041;-74
2021/07/25 02:45:47;;;;;;;30.48;23.15;;;17.90;87.80;;;;;;5032609;28;20041;-74
2021/07/25 02:48:13;;;;;;;27.65;22.17;;;17.80;87.90;;;;;;5026283;28;20033;-74
2021/07/25 02:50:39;;;;;;;25.63;19.88;;;17.80;87.90;;;;;;5025130;28;20120;-74
2021/07/25 02:53:04;;;;;;;25.75;19.52;;;17.80;87.90;;;;;;5025510;28;20456;-74
2021/07/25 02:55:30;;;;;;;24.02;19.15;;;17.80;88.00;;;;;;5028192;28;20653;-73
2021/07/25 02:57:56;;;;;;;22.30;18.05;;;17.80;88.00;;;;;;5025705;28;20021;-73
2021/07/25 03:00:21;;;;;;;21.23;17.10;;;17.90;87.90;;;;;;5029777;28;20049;-73
2021/07/25 03:02:47;;;;;;;22.30;18.00;;;17.90;87.90;;;;;;5027871;28;20395;-73
2021/07/25 03:05:13;;;;;;;24.02;18.60;;;17.90;87.80;;;;;;5033257;28;20085;-75
2021/07/25 03:07:39;;;;;;;23.85;18.02;;;17.90;87.70;;;;;;5031592;28;20051;-72
2021/07/25 03:10:05;;;;;;;21.92;16.65;;;18.00;87.70;;;;;;5029841;28;20041;-78
2021/07/25 03:12:31;;;;;;;21.50;17.48;;;17.90;87.60;;;;;;5029895;28;20384;-73
2021/07/25 03:14:57;;;;;;;20.35;16.52;;;17.90;87.40;;;;;;5032657;28;20045;-73
2021/07/25 03:17:23;;;;;;;21.55;15.57;;;17.90;87.50;;;;;;5031098;28;20468;-73
2021/07/25 03:19:51;;;;;;;26.98;16.92;;;17.90;87.40;;;;;;5032894;28;20108;-74
2021/07/25 03:22:17;;;;;;;18.35;14.70;;;17.90;87.30;;;;;;5032856;28;20465;-73
2021/07/25 03:24:43;;;;;;;19.23;15.18;;;17.90;87.20;;;;;;5031472;28;20129;-74
2021/07/25 03:27:09;;;;;;;17.95;14.68;;;17.90;87.20;;;;;;5029127;28;20045;-80
2021/07/25 03:29:37;;;;;;;18.05;13.68;;;17.80;87.20;;;;;;5031578;28;20103;-72
2021/07/25 03:32:06;;;;;;;15.70;12.07;;;17.80;87.10;;;;;;5029495;28;20124;-81
2021/07/25 03:34:33;;;;;;;18.65;12.90;;;17.80;87.10;;;;;;5030119;28;20029;-73
2021/07/25 03:37:02;;;;;;;15.70;12.07;;;17.80;87.20;;;;;;5027385;28;20057;-74
2021/07/25 03:39:29;;;;;;;15.95;11.70;;;17.70;87.20;;;;;;5024411;28;20049;-74
2021/07/25 03:41:55;;;;;;;17.45;12.10;;;17.70;87.30;;;;;;5022609;28;20385;-73
2021/07/25 03:44:20;;;;;;;15.23;11.13;;;17.70;87.40;;;;;;5037675;28;20038;-73
2021/07/25 03:46:46;;;;;;;15.40;11.68;;;17.70;87.50;;;;;;5024980;28;20076;-78
2021/07/25 03:49:12;;;;;;;15.38;11.40;;;17.70;87.50;;;;;;5024427;28;20112;-80
2021/07/25 03:51:38;;;;;;;15.75;11.90;;;17.70;87.60;;;;;;5024662;28;20034;-73
2021/07/25 03:54:07;;;;;;;17.92;11.80;;;17.70;87.60;;;;;;5027796;28;20045;-73
2021/07/25 03:56:35;;;;;;;17.92;12.73;;;17.60;87.60;;;;;;5032422;28;20065;-74
2021/07/25 03:59:01;;;;;;;17.13;13.43;;;17.70;87.70;;;;;;5029828;28;20092;-80
2021/07/25 04:01:27;;;;;;;18.65;12.82;;;17.70;87.70;;;;;;5025895;28;20049;-75
2021/07/25 04:03:52;;;;;;;14.45;11.20;;;17.70;87.80;;;;;;5037256;28;20041;-73
2021/07/25 04:06:18;;;;;;;16.48;11.02;;;17.70;87.70;;;;;;5030300;28;20041;-75
2021/07/25 04:08:44;;;;;;;19.05;12.70;;;17.80;87.80;;;;;;5034344;28;20527;-72
2021/07/25 04:11:16;;;;;;;17.00;12.73;;;17.80;87.70;;;;;;5031772;28;20038;-75
2021/07/25 04:13:42;;;;;;;18.60;11.80;;;17.80;87.60;;;;;;5025594;28;20037;-73
2021/07/25 04:16:07;;;;;;;15.48;11.45;;;17.80;87.60;;;;;;5030692;28;20053;-79
2021/07/25 04:18:33;;;;;;;19.38;12.18;;;17.80;87.60;;;;;;5031492;28;20084;-74
2021/07/25 04:20:59;;;;;;;17.15;12.05;;;17.90;87.50;;;;;;5029683;28;20061;-74
2021/07/25 04:23:24;;;;;;;16.55;11.55;;;17.90;87.30;;;;;;5025135;28;20141;-75
2021/07/25 04:25:50;;;;;;;18.33;11.80;;;17.90;87.30;;;;;;5028399;28;20076;-74
2021/07/25 04:28:17;;;;;;;15.45;11.45;;;18.00;87.20;;;;;;5027625;28;20037;-72
2021/07/25 04:30:42;;;;;;;16.38;10.75;;;18.00;87.10;;;;;;5031719;28;20041;-73
2021/07/25 04:33:08;;;;;;;16.08;10.50;;;18.10;86.90;;;;;;5029263;28;20445;-85
2021/07/25 04:35:38;;;;;;;15.10;10.75;;;18.10;86.90;;;;;;5032532;28;20029;-73
2021/07/25 04:38:04;;;;;;;17.75;10.70;;;18.10;86.90;;;;;;5032617;28;20026;-77
2021/07/25 04:40:30;;;;;;;15.82;10.63;;;18.10;86.70;;;;;;5027427;28;20056;-73
2021/07/25 04:42:58;;;;;;;15.13;10.52;;;18.20;86.30;;;;;;5032566;28;20468;-72
2021/07/25 04:45:52;;;;;;;16.63;10.25;;;18.30;86.30;;;;;;5027699;28;20425;-74
2021/07/25 04:48:37;;;;;;;18.70;9.80;;;18.40;85.80;;;;;;5029397;28;20041;-74
2021/07/25 04:51:06;;;;;;;15.07;10.50;;;18.50;85.70;;;;;;5029436;28;20112;-75
2021/07/25 04:53:39;;;;;;;15.88;10.30;;;18.60;85.20;;;;;;5042083;28;20040;-73
2021/07/25 04:56:11;;;;;;;15.88;11.00;;;18.60;84.90;;;;;;5026169;28;20042;-73
2021/07/25 04:59:03;;;;;;;17.27;9.27;;;18.70;84.70;;;;;;5029545;28;20030;-73
2021/07/25 05:01:31;;;;;;;14.18;9.10;;;18.70;84.20;;;;;;5028856;28;20037;-73
2021/07/25 05:04:00;;;;;;;14.38;9.35;;;18.80;84.20;;;;;;5039678;28;20488;-73
2021/07/25 05:06:28;;;;;;;12.73;9.50;;;18.90;84.30;;;;;;5026249;28;20093;-75
2021/07/25 05:08:54;;;;;;;14.65;8.93;;;18.90;83.70;;;;;;5028658;28;20038;-74
2021/07/25 05:11:52;;;;;;;14.70;8.85;;;19.00;83.70;;;;;;5026952;28;20049;-73
2021/07/25 05:14:32;;;;;;;14.13;8.70;;;19.10;83.50;;;;;;5022439;28;20103;-74
2021/07/25 05:17:09;;;;;;;16.48;8.68;;;19.30;83.20;;;;;;5030543;28;20037;-73
2021/07/25 05:19:55;;;;;;;19.50;8.48;;;19.50;82.60;;;;;;5031969;28;20063;-75
2021/07/25 05:22:31;;;;;;;17.15;8.85;;;19.50;82.40;;;;;;5027263;28;20136;-72
2021/07/25 05:25:00;;;;;;;21.00;9.45;;;19.50;82.50;;;;;;5030503;28;20136;-72
2021/07/25 05:27:31;;;;;;;15.75;8.57;;;19.50;82.30;;;;;;5023407;28;21547;-77
2021/07/25 05:29:58;;;;;;;13.30;7.85;;;19.40;82.60;;;;;;5028481;28;20080;-72
2021/07/25 05:32:23;;;;;;;13.55;8.07;;;19.40;82.60;;;;;;5025781;28;20045;-73
2021/07/25 05:34:49;;;;;;;16.92;8.82;;;19.40;82.70;;;;;;5029601;28;20542;-73
2021/07/25 05:37:15;;;;;;;16.55;8.32;;;19.40;82.70;;;;;;5030396;28;20025;-76
2021/07/25 05:39:43;;;;;;;12.73;7.53;;;19.40;82.90;;;;;;5028569;28;20095;-76
2021/07/25 05:42:09;;;;;;;14.95;8.40;;;19.30;83.50;;;;;;5029144;28;20046;-75
2021/07/25 05:44:34;;;;;;;17.20;8.73;;;19.30;83.50;;;;;;5031185;28;20393;-77
2021/07/25 05:47:00;;;;;;;14.75;8.13;;;19.20;83.70;;;;;;5027541;28;20087;-73
2021/07/25 05:49:26;;;;;;;13.35;8.90;;;19.30;83.50;;;;;;5032689;28;20034;-73
2021/07/25 05:51:51;;;;;;;13.02;7.68;;;19.40;83.40;;;;;;5032889;28;20033;-74
2021/07/25 05:54:17;;;;;;;13.88;7.78;;;19.50;83.30;;;;;;5025852;28;20047;-75
2021/07/25 05:56:42;;;;;;;12.85;8.48;;;19.50;83.10;;;;;;5029103;28;20089;-78
2021/07/25 05:59:10;;;;;;;12.40;8.23;;;19.60;82.80;;;;;;5026763;28;20455;-74
2021/07/25 06:01:37;;;;;;;17.10;7.38;;;19.80;82.80;;;;;;5028453;28;20037;-74
2021/07/25 06:04:04;;;;;;;14.27;7.85;;;19.80;82.60;;;;;;5026531;28;20057;-76
2021/07/25 06:06:30;;;;;;;18.95;8.35;;;19.80;82.60;;;;;;5027781;28;20434;-77
2021/07/25 06:08:56;;;;;;;14.50;8.00;;;19.80;82.30;;;;;;5026871;28;20120;-73
2021/07/25 06:11:23;;;;;;;16.70;7.15;;;19.90;82.20;;;;;;5031905;28;20483;-73
2021/07/25 06:13:50;;;;;;;18.05;7.15;;;19.90;82.10;;;;;;5027170;28;20122;-73
2021/07/25 06:16:16;;;;;;;12.13;7.72;;;20.00;82.00;;;;;;5023980;28;20041;-78
2021/07/25 06:18:42;;;;;;;17.92;8.57;;;20.00;81.80;;;;;;5027053;28;20088;-74
2021/07/25 06:21:08;;;;;;;15.93;7.25;;;20.10;81.40;;;;;;5025881;28;20048;-73
2021/07/25 06:23:33;;;;;;;15.57;7.93;;;20.10;81.70;;;;;;5027462;28;20049;-74
2021/07/25 06:25:59;;;;;;;14.20;7.55;;;20.00;81.60;;;;;;5030130;28;20033;-73
2021/07/25 06:28:25;;;;;;;14.88;7.40;;;20.00;81.60;;;;;;5027533;28;20457;-73
2021/07/25 06:30:50;;;;;;;13.27;7.15;;;20.00;81.50;;;;;;5027736;28;20699;-73
2021/07/25 06:33:16;;;;;;;13.98;7.72;;;20.00;81.50;;;;;;5027890;28;20098;-72
2021/07/25 06:35:43;;;;;;;12.60;6.72;;;19.90;81.40;;;;;;5030587;28;20389;-74
2021/07/25 06:38:13;;;;;;;15.13;7.47;;;20.00;81.60;;;;;;5023639;28;20439;-82
2021/07/25 06:40:53;;;;;;;15.18;7.45;;;20.00;81.30;;;;;;5026498;28;20083;-75
2021/07/25 06:43:20;;;;;;;14.98;7.38;;;20.00;81.10;;;;;;5026630;28;20049;-73
2021/07/25 06:45:46;;;;;;;12.27;6.90;;;20.00;81.00;;;;;;5028765;28;20056;-73
2021/07/25 06:48:17;;;;;;;13.13;7.13;;;20.10;80.80;;;;;;5025211;28;20030;-82
2021/07/25 06:50:43;;;;;;;13.73;6.72;;;20.20;80.50;;;;;;5028733;28;20033;-75
2021/07/25 06:53:08;;;;;;;14.65;7.63;;;20.20;80.60;;;;;;5022567;28;20504;-73
2021/07/25 06:55:34;;;;;;;11.27;6.78;;;20.30;80.40;;;;;;5032393;28;20048;-75
2021/07/25 06:58:00;;;;;;;10.80;6.35;;;20.30;80.40;;;;;;5028313;28;20044;-78
2021/07/25 07:00:26;;;;;;;13.00;7.10;;;20.40;80.80;;;;;;5025156;28;20033;-73
2021/07/25 07:02:56;;;;;;;14.63;7.65;;;20.50;81.10;;;;;;5030170;28;20579;-73
2021/07/25 07:05:41;;;;;;;15.93;7.57;;;20.60;80.70;;;;;;5041745;28;20054;-73
2021/07/25 07:08:07;;;;;;;12.30;7.05;;;20.70;80.70;;;;;;5023880;28;20030;-75
2021/07/25 07:10:38;;;;;;;16.83;7.57;;;20.80;80.50;;;;;;5027920;28;20136;-73
2021/07/25 07:13:09;;;;;;;12.40;7.18;;;20.80;80.40;;;;;;5030987;28;20072;-74
2021/07/25 07:15:37;;;;;;;12.73;7.22;;;20.80;79.50;;;;;;5023881;28;20096;-73
2021/07/25 07:18:04;;;;;;;14.57;7.57;;;20.80;80.40;;;;;;5026484;28;20029;-82
2021/07/25 07:20:30;;;;;;;11.38;6.72;;;20.70;80.70;;;;;;5025139;28;20546;-72
2021/07/25 07:23:01;;;;;;;13.98;6.80;;;20.80;80.70;;;;;;5029392;28;20036;-72
2021/07/25 07:25:30;;;;;;;12.45;6.05;;;21.00;80.70;;;;;;5026260;28;20045;-74
2021/07/25 07:27:56;;;;;;;10.30;6.63;;;21.10;78.90;;;;;;5027212;28;20061;-72
2021/07/25 07:30:22;;;;;;;13.45;6.13;;;21.20;79.40;;;;;;5030570;28;20046;-73
2021/07/25 07:32:48;;;;;;;9.93;5.90;;;21.20;78.90;;;;;;5038609;28;20033;-73
2021/07/25 07:35:23;;;;;;;13.27;6.32;;;21.30;78.70;;;;;;5036954;28;20036;-73
2021/07/25 07:37:49;;;;;;;9.93;5.45;;;21.50;78.70;;;;;;5026644;28;20103;-74
2021/07/25 07:40:17;;;;;;;13.18;6.32;;;21.60;78.60;;;;;;5026282;28;20034;-73
2021/07/25 07:42:42;;;;;;;13.73;6.78;;;21.60;77.70;;;;;;5024418;28;20030;-75
2021/07/25 07:45:09;;;;;;;10.75;6.47;;;21.70;77.70;;;;;;5025683;28;20052;-77
2021/07/25 07:47:34;;;;;;;10.68;6.30;;;21.60;77.50;;;;;;5032419;28;20116;-73
2021/07/25 07:50:00;;;;;;;11.98;5.95;;;21.60;77.60;;;;;;5029151;28;20117;-72
2021/07/25 07:52:26;;;;;;;12.20;5.97;;;21.50;77.50;;;;;;5032936;28;20039;-77
2021/07/25 07:54:51;;;;;;;10.30;5.82;;;21.50;77.70;;;;;;5032682;28;20129;-73
2021/07/25 07:57:17;;;;;;;13.98;6.30;;;21.50;78.00;;;;;;5029685;28;20424;-78
2021/07/25 07:59:43;;;;;;;10.82;5.85;;;21.60;78.00;;;;;;5028913;28;20524;-83
2021/07/25 08:02:09;;;;;;;9.35;5.40;;;21.50;78.20;;;;;;5028634;28;20049;-72
2021/07/25 08:04:35;;;;;;;12.85;5.63;;;21.50;77.60;;;;;;5035129;28;20103;-72
2021/07/25 08:07:01;;;;;;;12.10;5.05;;;21.50;78.20;;;;;;5030053;28;20025;-73
2021/07/25 08:09:27;;;;;;;12.68;5.93;;;21.50;78.20;;;;;;5030276;28;20025;-72
2021/07/25 08:11:53;;;;;;;11.73;5.97;;;21.50;78.30;;;;;;5035155;28;20041;-73
2021/07/25 08:14:20;;;;;;;12.52;6.07;;;21.60;78.20;;;;;;5030006;28;20134;-84
2021/07/25 08:16:47;;;;;;;12.10;6.15;;;21.70;77.70;;;;;;5028448;28;20474;-72
2021/07/25 08:19:13;;;;;;;11.40;6.28;;;21.70;77.20;;;;;;5032257;28;20398;-82
2021/07/25 08:21:40;;;;;;;14.35;5.68;;;21.80;77.10;;;;;;5033284;28;20072;-75
2021/07/25 08:24:07;;;;;;;11.90;5.60;;;22.00;77.40;;;;;;5030031;28;20045;-72
2021/07/25 08:26:33;;;;;;;12.30;5.30;;;22.10;75.70;;;;;;5030058;28;20044;-73
2021/07/25 08:28:59;;;;;;;10.73;5.07;;;22.10;75.20;;;;;;5031420;28;20064;-73
2021/07/25 08:31:24;;;;;;;12.95;5.32;;;22.10;75.30;;;;;;5031503;28;20476;-72
2021/07/25 08:33:50;;;;;;;13.57;5.07;;;22.30;75.20;;;;;;5033273;28;20036;-73
2021/07/25 08:36:16;;;;;;;11.10;4.90;;;22.20;74.10;;;;;;5028831;28;20065;-73
2021/07/25 08:38:42;;;;;;;11.02;5.20;;;22.20;74.50;;;;;;5030785;28;20140;-75
2021/07/25 08:41:51;;;;;;;10.05;5.28;;;22.40;74.80;;;;;;5027499;28;20038;-72
2021/07/25 08:44:39;;;;;;;10.13;4.90;;;22.60;74.00;;;;;;5026314;28;20077;-70
2021/07/25 08:47:21;;;;;;;11.23;5.20;;;22.60;72.90;;;;;;5026157;28;20030;-70
2021/07/25 08:49:49;;;;;;;11.45;5.63;;;22.70;72.40;;;;;;5020335;28;20488;-69
2021/07/25 08:52:21;;;;;;;10.30;6.70;;;22.60;71.80;;;;;;5023110;28;20500;-70
2021/07/25 08:54:47;;;;;;;10.85;6.82;;;22.60;72.20;;;;;;5027501;28;20071;-70
2021/07/25 08:57:16;;;;;;;11.90;6.80;;;22.60;73.00;;;;;;5024695;28;20079;-70
2021/07/25 08:59:44;;;;;;;12.02;7.47;;;22.50;72.50;;;;;;5025343;28;20037;-70
2021/07/25 09:02:22;;;;;;;11.30;7.57;;;22.50;72.50;;;;;;5023376;28;20040;-70
2021/07/25 09:04:48;;;;;;;12.52;7.55;;;22.60;72.30;;;;;;5042957;28;20046;-70
2021/07/25 09:07:15;;;;;;;11.63;9.05;;;22.60;72.00;;;;;;5028025;28;20095;-70
2021/07/25 09:09:43;;;;;;;11.90;7.55;;;22.60;72.50;;;;;;5023523;28;20022;-70
2021/07/25 09:12:12;;;;;;;10.65;7.40;;;22.90;72.00;;;;;;5018347;28;20034;-69
2021/07/25 09:14:43;;;;;;;12.88;8.43;;;22.90;71.60;;;;;;5030816;28;20072;-70
2021/07/25 09:17:10;;;;;;;10.52;7.55;;;23.00;71.10;;;;;;5027570;28;20033;-70
2021/07/25 09:20:04;;;;;;;9.40;6.22;;;23.10;71.10;;;;;;5027096;28;20043;-71
2021/07/25 09:22:30;;;;;;;11.63;5.38;;;23.10;71.10;;;;;;5025661;28;20053;-70
2021/07/25 09:24:56;;;;;;;12.20;4.93;;;23.10;70.00;;;;;;5027524;28;20042;-71
2021/07/25 09:27:23;;;;;;;7.60;4.25;;;23.10;69.50;;;;;;5026718;28;20038;-71
2021/07/25 09:29:49;;;;;;;7.22;4.18;;;23.10;70.10;;;;;;5030258;28;20033;-71
2021/07/25 09:32:18;;;;;;;9.45;4.80;;;23.10;69.60;;;;;;5029594;28;20384;-70
2021/07/25 09:34:46;;;;;;;9.25;4.57;;;23.10;69.80;;;;;;5031159;28;20103;-72
2021/07/25 09:37:19;;;;;;;10.60;4.43;;;23.10;70.00;;;;;;5027723;28;20041;-70
2021/07/25 09:39:49;;;;;;;7.47;3.53;;;23.40;69.30;;;;;;5028816;28;20064;-70
2021/07/25 09:42:15;;;;;;;6.45;3.28;;;23.50;69.20;;;;;;5035533;28;20065;-70
2021/07/25 09:44:55;;;;;;;10.73;3.80;;;23.60;67.40;;;;;;5030598;28;20124;-70
2021/07/25 09:47:35;;;;;;;8.80;3.63;;;23.30;68.50;;;;;;5034211;28;20394;-72
2021/07/25 09:50:03;;;;;;;8.52;3.55;;;23.40;68.60;;;;;;5028683;28;20087;-71
2021/07/25 09:52:34;;;;;;;10.70;3.95;;;23.50;69.00;;;;;;5034995;28;20133;-71
2021/07/25 09:55:03;;;;;;;8.60;4.05;;;23.60;68.80;;;;;;5029356;28;20033;-72
2021/07/25 09:57:31;;;;;;;8.77;4.07;;;24.00;67.60;;;;;;5033185;28;20431;-74
2021/07/25 09:59:58;;;;;;;9.23;4.10;;;24.10;67.50;;;;;;5034373;28;20393;-70
2021/07/25 10:02:47;;;;;;;5.97;3.20;;;24.20;65.50;;;;;;5019308;28;20030;-71
2021/07/25 10:05:19;;;;;;;8.20;3.70;;;24.10;66.40;;;;;;5023947;28;20042;-70
2021/07/25 10:07:46;;;;;;;6.88;3.83;;;24.10;66.50;;;;;;5022496;28;20041;-70
2021/07/25 10:10:14;;;;;;;10.00;4.13;;;24.20;67.00;;;;;;5025015;28;20061;-72
2021/07/25 10:12:42;;;;;;;8.40;3.72;;;24.30;67.30;;;;;;5029239;28;20404;-71
2021/07/25 10:15:11;;;;;;;7.75;3.78;;;24.10;66.00;;;;;;5027512;28;20029;-72
2021/07/25 10:17:41;;;;;;;12.43;4.15;;;23.70;65.80;;;;;;5023953;28;20112;-71
2021/07/25 10:20:09;;;;;;;7.25;3.30;;;23.70;67.50;;;;;;5021990;28;20037;-71
2021/07/25 10:22:37;;;;;;;8.80;3.60;;;23.90;67.40;;;;;;5021815;28;20071;-72
2021/07/25 10:25:05;;;;;;;8.82;3.42;;;24.00;64.80;;;;;;5024984;28;20404;-72
2021/07/25 10:27:34;;;;;;;11.57;3.67;;;24.10;66.30;;;;;;5034547;28;20034;-71
2021/07/25 10:30:04;;;;;;;6.93;3.80;;;23.90;67.20;;;;;;5024567;28;20121;-72
2021/07/25 10:32:31;;;;;;;7.40;4.03;;;23.80;70.50;;;;;;5026577;28;20428;-71
2021/07/25 10:35:00;;;;;;;8.23;5.15;;;23.60;68.10;;;;;;5035589;28;20047;-74
2021/07/25 10:37:26;;;;;;;7.88;4.57;;;23.30;68.20;;;;;;5042443;28;20030;-72
2021/07/25 10:39:54;;;;;;;7.70;3.97;;;23.40;71.30;;;;;;5026070;28;20045;-72
2021/07/25 10:42:23;;;;;;;8.55;4.25;;;23.30;69.40;;;;;;5026716;28;20037;-71
2021/07/25 10:44:49;;;;;;;7.93;3.75;;;23.40;69.40;;;;;;5027684;28;20076;-71
2021/07/25 10:47:23;;;;;;;8.32;4.05;;;23.40;69.80;;;;;;5028736;28;20061;-71
2021/07/25 10:50:15;;;;;;;;;;;23.40;71.80;;;;;;5028594;28;20362;-71
2021/07/25 10:52:49;;;;;;;8.40;4.97;;;23.20;71.00;;;;;;5027624;28;19925;-70
2021/07/25 10:55:41;;;;;;;8.32;4.95;;;23.10;71.60;;;;;;5028102;28;20038;-73
2021/07/25 10:58:21;;;;;;;11.15;5.95;;;23.00;71.60;;;;;;5028922;28;20665;-70
2021/07/25 11:00:52;;;;;;;8.75;5.25;;;23.00;72.20;;;;;;5024691;28;20165;-70
2021/07/25 11:03:41;;;;;;;9.25;5.38;;;22.70;73.70;;;;;;5025047;28;20048;-70
2021/07/25 11:06:13;;;;;;;9.27;5.88;;;22.90;75.20;;;;;;5024442;28;20086;-71
2021/07/25 11:08:43;;;;;;;9.95;5.97;;;23.10;75.20;;;;;;5026669;28;20496;-71
2021/07/25 11:11:34;;;;;;;10.77;6.18;;;23.20;74.60;;;;;;5028490;28;20033;-71
2021/07/25 11:14:01;;;;;;;10.68;6.72;;;23.30;74.20;;;;;;5024180;28;20548;-72
2021/07/25 11:16:30;;;;;;;10.25;5.47;;;23.50;74.50;;;;;;5027467;28;20054;-70
2021/07/25 11:19:11;;;;;;;9.10;5.00;;;23.30;73.70;;;;;;5028201;28;20132;-70
2021/07/25 11:21:41;;;;;;;9.57;5.28;;;23.50;72.50;;;;;;5029922;28;20575;-70
2021/07/25 11:24:26;;;;;;;8.30;5.22;;;23.60;70.10;;;;;;5029435;28;20045;-70
2021/07/25 11:26:53;;;;;;;8.25;4.63;;;23.60;71.90;;;;;;5028586;28;20064;-70
2021/07/25 11:29:39;;;;;;;7.85;4.97;;;23.80;71.40;;;;;;5028789;28;20097;-71
2021/07/25 11:32:36;;;;;;;8.73;4.90;;;24.10;71.20;;;;;;5029927;28;20212;-71
2021/07/25 11:35:06;;;;;;;9.40;4.60;;;23.90;69.50;;;;;;5027936;28;20037;-70
2021/07/25 11:37:40;;;;;;;8.68;4.82;;;23.80;69.70;;;;;;5029201;28;20063;-70
2021/07/25 11:40:09;;;;;;;8.93;4.68;;;23.90;70.80;;;;;;5031328;28;20153;-70
2021/07/25 11:42:36;;;;;;;8.95;5.15;;;23.70;69.70;;;;;;5029546;28;20025;-69
2021/07/25 11:45:06;;;;;;;8.48;4.78;;;24.10;70.10;;;;;;5033198;28;20180;-72
2021/07/25 11:47:33;;;;;;;7.53;4.68;;;24.50;69.20;;;;;;5028368;28;20033;-70
2021/07/25 11:49:59;;;;;;;7.50;3.95;;;24.90;68.60;;;;;;5035367;28;20456;-70
2021/07/25 11:52:27;;;;;;;12.00;4.13;;;25.20;65.60;;;;;;5031811;28;20072;-70
2021/07/25 11:54:53;;;;;;;6.03;3.65;;;25.50;63.80;;;;;;5027829;28;20037;-70
2021/07/25 11:57:27;;;;;;;7.22;3.97;;;25.70;62.50;;;;;;5029549;28;20034;-71
2021/07/25 12:00:03;;;;;;;8.38;3.95;;;25.60;62.50;;;;;;5033008;28;20036;-70
2021/07/25 12:02:30;;;;;;;7.35;3.90;;;25.70;62.00;;;;;;5030429;28;20476;-71
2021/07/25 12:04:57;;;;;;;7.38;3.83;;;25.70;63.70;;;;;;5026848;28;20041;-71
2021/07/25 12:07:34;;;;;;;6.55;3.75;;;25.90;63.60;;;;;;5029566;28;20121;-71
2021/07/25 12:10:00;;;;;;;8.07;3.45;;;26.00;62.10;;;;;;5029710;28;20034;-70
2021/07/25 12:12:32;;;;;;;6.00;2.85;;;26.30;62.10;;;;;;5030115;28;20052;-69
2021/07/25 12:15:02;;;;;;;6.95;2.55;;;26.20;61.30;;;;;;5030576;28;20125;-70
2021/07/25 12:17:49;;;;;;;5.32;2.85;;;26.20;58.30;;;;;;5028982;28;20030;-70
2021/07/25 12:20:19;;;;;;;5.97;2.75;;;25.80;59.00;;;;;;5025792;28;20084;-70
2021/07/25 12:22:56;;;;;;;5.72;3.20;;;26.00;59.60;;;;;;5031386;28;20052;-70
2021/07/25 12:25:33;;;;;;;7.22;3.25;;;26.00;58.80;;;;;;5034272;28;20523;-71
2021/07/25 12:28:08;;;;;;;5.75;3.13;;;25.70;58.50;;;;;;5028277;28;20099;-70
2021/07/25 12:30:43;;;;;;;6.20;3.50;;;25.80;59.40;;;;;;5026393;28;20088;-70
2021/07/25 12:33:10;;;;;;;7.35;3.47;;;25.60;58.10;;;;;;5030168;28;20030;-70
2021/07/25 12:35:36;;;;;;;5.38;3.20;;;25.60;60.10;;;;;;5024919;28;20148;-70
2021/07/25 12:38:11;;;;;;;6.53;3.40;;;25.90;59.60;;;;;;5028154;28;20077;-71
2021/07/25 12:40:46;;;;;;;6.10;3.50;;;26.20;58.20;;;;;;5026211;28;20163;-71
2021/07/25 12:43:16;;;;;;;5.72;3.40;;;26.30;57.60;;;;;;5027360;28;20084;-71
2021/07/25 12:45:43;;;;;;;6.35;3.65;;;26.30;57.50;;;;;;5023088;28;20037;-71